createdAt,value
2023-03-17T00:00:34.179Z,206.86
2023-03-17T00:01:34.151Z,206.02
2023-03-17T00:02:34.205Z,203.62
2023-03-17T00:03:34.223Z,205.73
2023-03-17T00:04:34.296Z,210.05
2023-03-17T00:05:34.240Z,212.63
2023-03-17T00:06:34.211Z,210.25
2023-03-17T00:07:34.228Z,211.91
2023-03-17T00:08:34.243Z,214.03
2023-03-17T00:09:34.280Z,211.11
2023-03-17T00:10:34.287Z,213.60
2023-03-17T00:11:33.304Z,211.56
2023-03-17T00:12:34.355Z,214.44
2023-03-17T00:13:33.328Z,214.32
2023-03-17T00:14:34.373Z,210.89
2023-03-17T00:15:34.419Z,212.45
2023-03-17T00:16:34.359Z,212.48
2023-03-17T00:17:33.375Z,211.16
2023-03-17T00:18:34.385Z,207.97
2023-03-17T00:19:34.429Z,203.56
2023-03-17T00:20:34.407Z,207.43
2023-03-17T00:21:34.441Z,212.79
2023-03-17T00:22:34.480Z,214.32
2023-03-17T00:23:34.483Z,214.81
2023-03-17T00:24:34.479Z,214.34
2023-03-17T00:25:34.463Z,214.17
2023-03-17T00:26:34.486Z,213.12
2023-03-17T00:27:34.496Z,210.99
2023-03-17T00:28:34.542Z,212.98
2023-03-17T00:29:34.562Z,214.92
2023-03-17T00:30:34.571Z,210.96
2023-03-17T00:31:34.615Z,210.25
2023-03-17T00:32:33.653Z,211.91
2023-03-17T00:33:34.635Z,213.49
2023-03-17T00:34:34.621Z,209.55
2023-03-17T00:35:33.719Z,210.82
2023-03-17T00:36:34.660Z,214.47
2023-03-17T00:37:34.671Z,210.76
2023-03-17T00:38:34.693Z,211.76
2023-03-17T00:39:34.712Z,208.64
2023-03-17T00:40:34.793Z,206.35
2023-03-17T00:41:34.782Z,208.22
2023-03-17T00:42:34.781Z,210.39
2023-03-17T00:43:34.796Z,213.19
2023-03-17T00:44:34.885Z,209.28
2023-03-17T00:45:34.871Z,213.23
2023-03-17T00:46:34.991Z,212.05
2023-03-17T00:47:34.943Z,208.09
2023-03-17T00:48:34.912Z,210.03
2023-03-17T00:49:33.951Z,214.64
2023-03-17T00:50:33.991Z,215.40
2023-03-17T00:51:35.015Z,206.52
2023-03-17T00:52:35.029Z,204.42
2023-03-17T00:53:34.114Z,206.84
2023-03-17T00:54:34.099Z,212.85
2023-03-17T00:55:34.113Z,211.33
2023-03-17T00:56:34.122Z,210.64
2023-03-17T00:57:34.184Z,208.24
2023-03-17T00:58:35.170Z,210.34
2023-03-17T00:59:34.224Z,213.28
2023-03-17T01:00:35.286Z,216.06
2023-03-17T01:01:35.297Z,211.32
2023-03-17T01:02:35.269Z,210.18
2023-03-17T01:03:35.305Z,210.70
2023-03-17T01:04:34.329Z,214.16
2023-03-17T01:05:35.370Z,214.03
2023-03-17T01:06:35.409Z,213.84
2023-03-17T01:07:35.422Z,210.74
2023-03-17T01:08:35.442Z,207.68
2023-03-17T01:09:35.475Z,214.06
2023-03-17T01:10:35.538Z,214.05
2023-03-17T01:11:35.542Z,204.91
2023-03-17T01:12:34.574Z,198.16
2023-03-17T01:13:35.616Z,199.79
2023-03-17T01:14:37.366Z,193.27
2023-03-17T01:15:35.655Z,201.13
2023-03-17T01:16:34.688Z,205.65
2023-03-17T01:17:34.620Z,201.41
2023-03-17T01:18:34.708Z,199.33
2023-03-17T01:19:35.594Z,192.80
2023-03-17T01:20:35.609Z,197.76
2023-03-17T01:21:35.586Z,199.09
2023-03-17T01:22:35.563Z,195.69
2023-03-17T01:23:35.560Z,199.18
2023-03-17T01:24:34.552Z,203.98
2023-03-17T01:25:35.561Z,205.33
2023-03-17T01:26:35.542Z,204.23
2023-03-17T01:27:35.558Z,207.49
2023-03-17T01:28:35.544Z,211.79
2023-03-17T01:29:35.516Z,210.11
2023-03-17T01:30:35.524Z,201.60
2023-03-17T01:31:34.576Z,205.57
2023-03-17T01:32:35.576Z,206.84
2023-03-17T01:33:35.501Z,206.08
2023-03-17T01:34:35.498Z,197.82
2023-03-17T01:35:35.541Z,190.35
2023-03-17T01:36:35.504Z,189.01
2023-03-17T01:37:35.490Z,189.59
2023-03-17T01:38:34.467Z,188.00
2023-03-17T01:39:35.465Z,184.14
2023-03-17T01:40:35.455Z,190.46
2023-03-17T01:41:34.440Z,200.73
2023-03-17T01:42:35.440Z,202.08
2023-03-17T01:43:35.449Z,200.60
2023-03-17T01:44:35.416Z,202.33
2023-03-17T01:45:35.461Z,204.82
2023-03-17T01:46:34.498Z,201.49
2023-03-17T01:47:35.402Z,194.85
2023-03-17T01:48:35.425Z,202.56
2023-03-17T01:49:35.396Z,199.80
2023-03-17T01:50:35.415Z,198.33
2023-03-17T01:51:35.451Z,202.28
2023-03-17T01:52:35.466Z,192.54
2023-03-17T01:53:35.522Z,185.30
2023-03-17T01:54:35.594Z,184.52
2023-03-17T01:55:35.635Z,190.82
2023-03-17T01:56:35.662Z,183.98
2023-03-17T01:57:35.696Z,177.14
2023-03-17T01:58:35.744Z,187.50
2023-03-17T01:59:35.790Z,187.41
2023-03-17T02:00:35.884Z,181.89
2023-03-17T02:01:35.898Z,176.65
2023-03-17T02:02:35.961Z,177.85
2023-03-17T02:03:36.002Z,175.22
2023-03-17T02:04:36.141Z,171.30
2023-03-17T02:05:35.095Z,164.81
2023-03-17T02:06:42.151Z,166.05
2023-03-17T02:07:36.196Z,166.18
2023-03-17T02:08:36.134Z,167.13
2023-03-17T02:09:36.124Z,168.35
2023-03-17T02:10:36.107Z,171.05
2023-03-17T02:11:35.132Z,176.37
2023-03-17T02:12:35.130Z,170.49
2023-03-17T02:13:35.115Z,166.00
2023-03-17T02:14:36.093Z,162.55
2023-03-17T02:15:36.077Z,163.27
2023-03-17T02:16:36.126Z,162.31
2023-03-17T02:17:36.068Z,163.13
2023-03-17T02:18:36.067Z,160.07
2023-03-17T02:19:36.051Z,165.23
2023-03-17T02:20:36.072Z,158.72
2023-03-17T02:21:36.027Z,158.73
2023-03-17T02:22:35.034Z,156.68
2023-03-17T02:23:36.012Z,166.30
2023-03-17T02:24:36.030Z,174.48
2023-03-17T02:25:36.011Z,172.59
2023-03-17T02:26:35.012Z,168.73
2023-03-17T02:27:35.988Z,168.10
2023-03-17T02:28:35.980Z,173.20
2023-03-17T02:29:35.005Z,163.95
2023-03-17T02:30:35.993Z,160.10
2023-03-17T02:31:35.968Z,157.62
2023-03-17T02:32:36.097Z,154.42
2023-03-17T02:33:34.952Z,157.54
2023-03-17T02:34:35.053Z,160.59
2023-03-17T02:35:36.143Z,159.97
2023-03-17T02:36:36.168Z,154.48
2023-03-17T02:37:35.150Z,152.80
2023-03-17T02:38:35.206Z,155.02
2023-03-17T02:39:36.301Z,154.92
2023-03-17T02:40:36.331Z,160.29
2023-03-17T02:41:36.379Z,170.32
2023-03-17T02:42:36.420Z,168.49
2023-03-17T02:43:36.464Z,163.59
2023-03-17T02:44:36.526Z,158.34
2023-03-17T02:45:35.569Z,166.12
2023-03-17T02:46:36.625Z,160.18
2023-03-17T02:47:36.668Z,152.46
2023-03-17T02:48:36.721Z,152.58
2023-03-17T02:49:36.765Z,149.73
2023-03-17T02:50:36.822Z,147.47
2023-03-17T02:51:35.861Z,146.40
2023-03-17T02:52:36.931Z,146.99
2023-03-17T02:53:36.974Z,148.49
2023-03-17T02:54:37.034Z,146.78
2023-03-17T02:55:36.085Z,160.49
2023-03-17T02:56:36.153Z,157.44
2023-03-17T02:57:36.191Z,156.91
2023-03-17T02:58:37.261Z,152.16
2023-03-17T02:59:37.308Z,150.99
2023-03-17T03:00:36.371Z,152.48
2023-03-17T03:01:37.450Z,156.92
2023-03-17T03:02:37.550Z,157.03
2023-03-17T03:03:36.533Z,150.63
2023-03-17T03:04:37.596Z,146.64
2023-03-17T03:05:37.666Z,144.96
2023-03-17T03:06:37.720Z,147.22
2023-03-17T03:07:37.767Z,144.81
2023-03-17T03:08:37.848Z,143.58
2023-03-17T03:09:37.901Z,142.59
2023-03-17T03:10:37.975Z,140.43
2023-03-17T03:11:38.018Z,141.34
2023-03-17T03:12:38.101Z,139.30
2023-03-17T03:13:38.144Z,138.39
2023-03-17T03:14:37.209Z,136.62
2023-03-17T03:15:37.311Z,146.97
2023-03-17T03:16:38.329Z,144.22
2023-03-17T03:17:38.403Z,139.24
2023-03-17T03:18:37.447Z,143.13
2023-03-17T03:19:38.514Z,140.61
2023-03-17T03:20:38.587Z,140.92
2023-03-17T03:21:38.716Z,140.20
2023-03-17T03:22:38.725Z,145.18
2023-03-17T03:23:38.777Z,148.66
2023-03-17T03:24:37.858Z,152.65
2023-03-17T03:25:38.902Z,144.86
2023-03-17T03:26:37.977Z,143.04
2023-03-17T03:27:38.039Z,139.65
2023-03-17T03:28:39.089Z,136.45
2023-03-17T03:29:38.144Z,135.15
2023-03-17T03:30:38.211Z,136.96
2023-03-17T03:31:39.254Z,134.87
2023-03-17T03:32:38.379Z,133.50
2023-03-17T03:33:39.383Z,129.60
2023-03-17T03:34:38.446Z,133.53
2023-03-17T03:35:39.536Z,129.32
2023-03-17T03:36:39.538Z,129.73
2023-03-17T03:37:39.611Z,133.96
2023-03-17T03:38:38.671Z,136.75
2023-03-17T03:39:39.716Z,133.50
2023-03-17T03:40:39.787Z,131.60
2023-03-17T03:41:39.811Z,132.15
2023-03-17T03:42:39.860Z,132.81
2023-03-17T03:43:39.896Z,131.90
2023-03-17T03:44:38.943Z,135.62
2023-03-17T03:45:40.031Z,132.96
2023-03-17T03:46:40.090Z,133.05
2023-03-17T03:47:39.128Z,131.73
2023-03-17T03:48:39.164Z,131.47
2023-03-17T03:49:40.206Z,128.13
2023-03-17T03:50:40.260Z,127.05
2023-03-17T03:51:40.304Z,129.39
2023-03-17T03:52:40.356Z,128.69
2023-03-17T03:53:40.414Z,126.86
2023-03-17T03:54:39.456Z,126.35
2023-03-17T03:55:40.510Z,125.10
2023-03-17T03:56:40.573Z,129.00
2023-03-17T03:57:40.593Z,128.60
2023-03-17T03:58:39.632Z,131.92
2023-03-17T03:59:39.702Z,144.33
2023-03-17T04:00:40.760Z,138.31
2023-03-17T04:01:40.841Z,148.19
2023-03-17T04:02:40.968Z,152.87
2023-03-17T04:03:40.942Z,148.80
2023-03-17T04:04:41.067Z,158.64
2023-03-17T04:05:40.065Z,164.88
2023-03-17T04:06:40.136Z,160.34
2023-03-17T04:07:40.202Z,158.44
2023-03-17T04:08:40.258Z,157.36
2023-03-17T04:09:41.307Z,153.30
2023-03-17T04:10:41.369Z,150.74
2023-03-17T04:11:40.470Z,144.45
2023-03-17T04:12:41.531Z,139.91
2023-03-17T04:13:41.595Z,136.42
2023-03-17T04:14:41.616Z,136.03
2023-03-17T04:15:41.688Z,133.67
2023-03-17T04:16:43.543Z,133.38
2023-03-17T04:17:40.735Z,132.29
2023-03-17T04:18:41.831Z,131.15
2023-03-17T04:19:41.717Z,133.93
2023-03-17T04:20:41.704Z,129.81
2023-03-17T04:21:41.705Z,124.09
2023-03-17T04:22:40.706Z,127.48
2023-03-17T04:23:41.690Z,127.02
2023-03-17T04:24:40.686Z,127.54
2023-03-17T04:25:41.679Z,125.39
2023-03-17T04:26:40.665Z,123.29
2023-03-17T04:27:40.659Z,123.41
2023-03-17T04:28:41.687Z,122.63
2023-03-17T04:29:41.650Z,123.28
2023-03-17T04:30:41.640Z,124.38
2023-03-17T04:31:41.678Z,122.46
2023-03-17T04:32:41.758Z,123.28
2023-03-17T04:33:41.619Z,120.69
2023-03-17T04:34:41.624Z,120.58
2023-03-17T04:35:41.780Z,121.34
2023-03-17T04:36:41.596Z,120.08
2023-03-17T04:37:40.612Z,121.91
2023-03-17T04:38:41.569Z,121.65
2023-03-17T04:39:41.562Z,120.22
2023-03-17T04:40:41.589Z,118.15
2023-03-17T04:41:41.598Z,118.48
2023-03-17T04:42:41.652Z,119.95
2023-03-17T04:43:41.710Z,120.02
2023-03-17T04:44:41.766Z,119.70
2023-03-17T04:45:41.862Z,118.12
2023-03-17T04:46:41.837Z,115.34
2023-03-17T04:47:41.893Z,115.34
2023-03-17T04:48:40.934Z,117.43
2023-03-17T04:49:41.974Z,116.17
2023-03-17T04:50:42.030Z,116.30
2023-03-17T04:51:41.075Z,113.71
2023-03-17T04:52:42.137Z,114.22
2023-03-17T04:53:42.162Z,114.57
2023-03-17T04:54:42.222Z,114.78
2023-03-17T04:55:42.256Z,111.22
2023-03-17T04:56:42.289Z,110.57
2023-03-17T04:57:42.317Z,111.54
2023-03-17T04:58:42.364Z,110.60
2023-03-17T04:59:42.407Z,111.49
2023-03-17T05:00:42.547Z,107.53
2023-03-17T05:01:41.518Z,110.40
2023-03-17T05:02:42.584Z,110.77
2023-03-17T05:03:42.553Z,111.53
2023-03-17T05:04:41.601Z,109.93
2023-03-17T05:05:41.640Z,112.28
2023-03-17T05:06:42.692Z,111.78
2023-03-17T05:07:42.759Z,109.12
2023-03-17T05:08:42.802Z,110.56
2023-03-17T05:09:42.840Z,112.06
2023-03-17T05:10:42.876Z,108.60
2023-03-17T05:11:42.925Z,109.77
2023-03-17T05:12:42.972Z,109.29
2023-03-17T05:13:43.031Z,107.77
2023-03-17T05:14:43.074Z,104.89
2023-03-17T05:15:43.116Z,104.01
2023-03-17T05:16:43.215Z,106.05
2023-03-17T05:17:43.184Z,104.17
2023-03-17T05:18:43.231Z,105.56
2023-03-17T05:19:43.325Z,106.27
2023-03-17T05:20:42.309Z,102.78
2023-03-17T05:21:43.345Z,106.38
2023-03-17T05:22:43.393Z,106.54
2023-03-17T05:23:42.431Z,104.92
2023-03-17T05:24:43.488Z,105.55
2023-03-17T05:25:43.533Z,105.54
2023-03-17T05:26:42.580Z,103.98
2023-03-17T05:27:43.614Z,102.35
2023-03-17T05:28:43.670Z,103.35
2023-03-17T05:29:43.734Z,102.55
2023-03-17T05:30:43.927Z,103.81
2023-03-17T05:31:43.792Z,102.52
2023-03-17T05:32:43.914Z,103.19
2023-03-17T05:33:43.864Z,104.47
2023-03-17T05:34:43.996Z,103.45
2023-03-17T05:35:44.004Z,103.60
2023-03-17T05:36:43.004Z,103.19
2023-03-17T05:37:44.054Z,101.47
2023-03-17T05:38:44.104Z,102.03
2023-03-17T05:39:44.159Z,102.25
2023-03-17T05:40:44.193Z,102.37
2023-03-17T05:41:44.236Z,104.68
2023-03-17T05:42:44.261Z,103.57
2023-03-17T05:43:43.321Z,102.75
2023-03-17T05:44:44.372Z,100.36
2023-03-17T05:45:43.455Z,100.83
2023-03-17T05:46:43.445Z,99.69
2023-03-17T05:47:44.483Z,103.32
2023-03-17T05:48:44.544Z,101.66
2023-03-17T05:49:44.585Z,100.35
2023-03-17T05:50:43.623Z,98.82
2023-03-17T05:51:43.670Z,100.10
2023-03-17T05:52:44.700Z,99.60
2023-03-17T05:53:44.750Z,99.68
2023-03-17T05:54:44.814Z,101.36
2023-03-17T05:55:43.819Z,99.57
2023-03-17T05:56:44.851Z,97.02
2023-03-17T05:57:44.908Z,97.09
2023-03-17T05:58:44.943Z,95.95
2023-03-17T05:59:45.000Z,99.07
2023-03-17T06:00:45.030Z,98.00
2023-03-17T06:01:45.067Z,98.45
2023-03-17T06:02:44.139Z,96.94
2023-03-17T06:03:45.170Z,98.46
2023-03-17T06:04:45.241Z,97.87
2023-03-17T06:05:44.210Z,95.74
2023-03-17T06:06:45.229Z,98.62
2023-03-17T06:07:54.073Z,96.99
2023-03-17T06:08:45.274Z,97.19
2023-03-17T06:09:45.283Z,97.80
2023-03-17T06:10:45.254Z,98.54
2023-03-17T06:11:45.249Z,99.61
2023-03-17T06:12:45.227Z,99.10
2023-03-17T06:13:45.245Z,101.62
2023-03-17T06:14:44.223Z,102.43
2023-03-17T06:15:45.250Z,102.23
2023-03-17T06:16:45.205Z,106.07
2023-03-17T06:17:45.231Z,107.64
2023-03-17T06:18:44.184Z,108.22
2023-03-17T06:19:45.570Z,108.48
2023-03-17T06:20:45.205Z,109.12
2023-03-17T06:21:44.171Z,108.12
2023-03-17T06:23:02.297Z,106.07
2023-03-17T06:44:45.013Z,130.12
2023-03-17T06:45:44.366Z,132.16
2023-03-17T06:47:45.223Z,130.74
2023-03-17T06:49:45.794Z,131.79
2023-03-17T06:52:46.802Z,131.38
2023-03-17T06:53:45.211Z,134.71
2023-03-17T06:54:45.280Z,156.76
2023-03-17T07:00:44.913Z,117.56
2023-03-17T07:02:43.878Z,118.37
2023-03-17T07:12:44.846Z,152.04
2023-03-17T07:17:44.762Z,179.00
2023-03-17T07:32:45.467Z,242.78
2023-03-17T07:34:45.480Z,248.60
2023-03-17T07:37:45.610Z,246.29
2023-03-17T07:38:45.655Z,247.22
2023-03-17T07:39:45.754Z,250.00
2023-03-17T07:40:45.819Z,249.70
2023-03-17T07:41:45.808Z,250.53
2023-03-17T07:43:45.906Z,249.97
2023-03-17T07:45:45.998Z,238.39
2023-03-17T07:46:45.912Z,244.77
2023-03-17T07:49:45.981Z,244.17
2023-03-17T07:50:46.005Z,250.59
2023-03-17T07:51:46.038Z,250.00
2023-03-17T07:52:46.058Z,243.88
2023-03-17T07:53:46.126Z,242.57
2023-03-17T07:54:46.145Z,240.59
2023-03-17T07:56:46.188Z,241.86
2023-03-17T07:57:46.259Z,239.55
2023-03-17T07:59:46.274Z,240.70
2023-03-17T08:00:46.313Z,238.99
2023-03-17T08:01:46.328Z,237.89
2023-03-17T08:02:53.695Z,237.69
2023-03-17T08:03:46.342Z,237.78
2023-03-17T08:05:46.313Z,237.46
2023-03-17T08:06:46.265Z,235.77
2023-03-17T08:07:45.329Z,229.32
2023-03-17T08:08:46.244Z,229.87
2023-03-17T08:09:46.254Z,229.23
2023-03-17T08:10:46.259Z,227.76
2023-03-17T08:11:46.237Z,225.47
2023-03-17T08:12:46.293Z,231.01
2023-03-17T08:13:46.237Z,229.47
2023-03-17T08:15:46.203Z,231.34
2023-03-17T08:16:46.287Z,229.36
2023-03-17T08:17:46.174Z,229.42
2023-03-17T08:18:46.259Z,227.44
2023-03-17T08:20:46.179Z,228.33
2023-03-17T08:21:46.169Z,227.01
2023-03-17T08:22:46.143Z,226.17
2023-03-17T08:23:46.191Z,227.34
2023-03-17T08:24:46.142Z,226.70
2023-03-17T08:25:46.137Z,222.82
2023-03-17T08:26:46.128Z,222.07
2023-03-17T08:27:46.120Z,219.82
2023-03-17T08:29:46.095Z,218.87
2023-03-17T08:31:46.639Z,221.73
2023-03-17T08:32:46.098Z,216.62
2023-03-17T08:34:46.059Z,214.98
2023-03-17T08:35:46.174Z,215.27
2023-03-17T08:36:46.114Z,216.80
2023-03-17T08:37:46.054Z,217.25
2023-03-17T08:38:46.047Z,215.07
2023-03-17T08:40:46.062Z,216.21
2023-03-17T08:41:46.118Z,215.42
2023-03-17T08:42:46.186Z,214.47
2023-03-17T08:43:46.258Z,211.31
2023-03-17T08:44:46.336Z,213.20
2023-03-17T08:45:46.511Z,209.65
2023-03-17T08:46:46.410Z,210.85
2023-03-17T08:47:46.442Z,211.89
2023-03-17T08:48:46.527Z,210.21
2023-03-17T08:49:46.558Z,184.48
2023-03-17T08:50:45.833Z,169.58
2023-03-17T08:51:46.664Z,181.36
2023-03-17T08:52:47.334Z,181.09
2023-03-17T08:53:46.733Z,171.94
2023-03-17T08:54:46.722Z,168.63
2023-03-17T08:55:46.744Z,174.42
2023-03-17T08:56:46.739Z,169.24
2023-03-17T08:57:46.806Z,150.59
2023-03-17T08:58:46.821Z,151.37
2023-03-17T08:59:46.879Z,149.98
2023-03-17T09:00:46.897Z,145.39
2023-03-17T09:01:46.057Z,151.63
2023-03-17T09:02:47.043Z,151.05
2023-03-17T09:03:47.043Z,154.42
2023-03-17T09:04:46.064Z,152.82
2023-03-17T09:05:46.071Z,150.05
2023-03-17T09:07:02.287Z,149.53
2023-03-17T09:07:47.136Z,149.73
2023-03-17T09:08:47.108Z,149.17
2023-03-17T09:09:46.043Z,143.07
2023-03-17T09:10:47.063Z,137.25
2023-03-17T09:11:46.021Z,116.37
2023-03-17T09:12:47.021Z,92.89
2023-03-17T09:14:48.155Z,56.42
2023-03-17T09:15:47.117Z,43.81
2023-03-17T09:16:46.027Z,57.18
2023-03-17T09:17:45.974Z,59.45
2023-03-17T09:18:47.003Z,63.04
2023-03-17T09:19:45.987Z,63.27
2023-03-17T09:20:46.981Z,62.99
2023-03-17T09:21:46.966Z,62.20
2023-03-17T09:22:46.959Z,59.54
2023-03-17T09:23:46.958Z,59.54
2023-03-17T09:24:46.933Z,55.15
2023-03-17T09:25:46.940Z,43.72
2023-03-17T09:26:46.934Z,46.21
2023-03-17T09:27:46.924Z,42.82
2023-03-17T09:28:46.896Z,38.00
2023-03-17T09:29:46.909Z,29.93
2023-03-17T09:30:47.005Z,25.60
2023-03-17T09:31:46.887Z,25.94
2023-03-17T09:32:45.939Z,24.05
2023-03-17T09:33:46.883Z,22.38
2023-03-17T09:34:46.884Z,35.89
2023-03-17T09:35:46.939Z,35.11
2023-03-17T09:36:45.875Z,42.09
2023-03-17T09:37:46.845Z,33.91
2023-03-17T09:38:46.818Z,15.00
2023-03-17T09:39:46.824Z,23.30
2023-03-17T09:40:46.846Z,25.87
2023-03-17T09:41:46.851Z,39.68
2023-03-17T09:42:45.816Z,39.90
2023-03-17T09:43:45.796Z,33.97
2023-03-17T09:44:46.783Z,32.06
2023-03-17T09:45:46.793Z,16.33
2023-03-17T09:46:45.806Z,12.24
2023-03-17T09:47:46.759Z,16.81
2023-03-17T09:48:46.765Z,2.13
2023-03-17T09:49:46.747Z,15.45
2023-03-17T09:50:46.792Z,15.91
2023-03-17T09:51:46.788Z,21.34
2023-03-17T09:52:46.732Z,23.44
2023-03-17T09:53:46.712Z,27.92
2023-03-17T09:54:46.767Z,22.64
2023-03-17T09:55:46.759Z,22.36
2023-03-17T09:56:46.882Z,35.53
2023-03-17T09:57:46.770Z,46.48
2023-03-17T09:58:46.733Z,67.51
2023-03-17T09:59:46.770Z,76.42
2023-03-17T10:00:45.795Z,80.64
2023-03-17T10:01:46.972Z,100.77
2023-03-17T10:02:46.889Z,98.23
2023-03-17T10:03:47.131Z,100.09
2023-03-17T10:04:47.026Z,106.62
2023-03-17T10:05:45.992Z,123.84
2023-03-17T10:06:46.018Z,125.60
2023-03-17T10:07:47.023Z,127.92
2023-03-17T10:08:47.038Z,129.78
2023-03-17T10:09:47.034Z,139.40
2023-03-17T10:10:46.122Z,139.26
2023-03-17T10:11:47.118Z,143.22
2023-03-17T10:12:47.156Z,157.10
2023-03-17T10:13:47.275Z,159.20
2023-03-17T10:14:49.022Z,157.48
2023-03-17T10:15:46.305Z,157.61
2023-03-17T10:16:47.245Z,158.09
2023-03-17T10:17:47.236Z,160.23
2023-03-17T10:18:47.233Z,162.74
2023-03-17T10:19:47.229Z,169.07
2023-03-17T10:20:48.708Z,170.45
2023-03-17T10:21:47.237Z,170.69
2023-03-17T10:22:47.238Z,171.28
2023-03-17T10:23:47.211Z,172.69
2023-03-17T10:24:47.226Z,177.28
2023-03-17T10:25:47.235Z,182.35
2023-03-17T10:26:47.223Z,185.18
2023-03-17T10:27:47.171Z,187.42
2023-03-17T10:28:47.178Z,188.25
2023-03-17T10:29:48.535Z,190.85
2023-03-17T10:30:47.221Z,191.99
2023-03-17T10:31:47.301Z,193.73
2023-03-17T10:32:47.326Z,194.44
2023-03-17T10:33:47.249Z,194.52
2023-03-17T10:34:46.253Z,192.87
2023-03-17T10:35:47.356Z,188.57
2023-03-17T10:36:47.329Z,180.23
2023-03-17T10:37:47.270Z,181.65
2023-03-17T10:38:47.302Z,180.48
2023-03-17T10:39:46.262Z,173.79
2023-03-17T10:40:47.295Z,168.47
2023-03-17T10:41:47.336Z,167.98
2023-03-17T10:42:46.318Z,165.72
2023-03-17T10:43:47.357Z,166.33
2023-03-17T10:44:47.336Z,162.79
2023-03-17T10:45:47.356Z,156.07
2023-03-17T10:46:47.384Z,139.73
2023-03-17T10:47:47.391Z,110.21
2023-03-17T10:48:47.431Z,83.48
2023-03-17T10:49:47.492Z,78.58
2023-03-17T10:50:49.469Z,74.13
2023-03-17T10:51:47.880Z,77.40
2023-03-17T10:52:47.536Z,83.23
2023-03-17T10:53:47.515Z,83.72
2023-03-17T10:54:46.501Z,93.08
2023-03-17T10:55:46.487Z,100.59
2023-03-17T10:56:47.488Z,99.76
2023-03-17T10:57:47.466Z,99.23
2023-03-17T10:58:46.470Z,103.06
2023-03-17T10:59:47.473Z,105.66
2023-03-17T11:00:46.476Z,106.49
2023-03-17T11:01:47.470Z,108.96
2023-03-17T11:02:47.434Z,111.41
2023-03-17T11:03:47.559Z,122.70
2023-03-17T11:04:47.421Z,118.17
2023-03-17T11:05:47.412Z,119.86
2023-03-17T11:06:47.443Z,121.35
2023-03-17T11:07:47.398Z,122.36
2023-03-17T11:08:47.434Z,123.17
2023-03-17T11:09:47.384Z,124.60
2023-03-17T11:10:47.395Z,124.48
2023-03-17T11:11:47.398Z,124.39
2023-03-17T11:12:47.395Z,126.00
2023-03-17T11:13:47.369Z,130.43
2023-03-17T11:14:47.411Z,133.42
2023-03-17T11:15:47.423Z,134.00
2023-03-17T11:16:47.563Z,135.69
2023-03-17T11:17:47.516Z,134.29
2023-03-17T11:18:47.506Z,133.74
2023-03-17T11:19:46.498Z,132.38
2023-03-17T11:20:46.511Z,138.64
2023-03-17T11:21:47.543Z,136.91
2023-03-17T11:22:47.534Z,143.94
2023-03-17T11:23:47.541Z,139.14
2023-03-17T11:24:47.605Z,147.09
2023-03-17T11:25:47.604Z,143.48
2023-03-17T11:26:47.656Z,139.21
2023-03-17T11:27:47.672Z,140.44
2023-03-17T11:28:47.679Z,145.37
2023-03-17T11:29:47.718Z,144.36
2023-03-17T11:30:47.759Z,145.78
2023-03-17T11:31:47.853Z,147.14
2023-03-17T11:32:47.714Z,146.89
2023-03-17T11:33:47.713Z,145.01
2023-03-17T11:34:47.754Z,148.36
2023-03-17T11:35:47.777Z,145.10
2023-03-17T11:36:46.740Z,146.70
2023-03-17T11:37:47.778Z,143.53
2023-03-17T11:38:47.963Z,146.55
2023-03-17T11:39:47.810Z,149.12
2023-03-17T11:40:47.859Z,146.35
2023-03-17T11:41:47.852Z,134.81
2023-03-17T11:42:47.906Z,135.25
2023-03-17T11:43:46.945Z,139.64
2023-03-17T11:44:47.976Z,137.31
2023-03-17T11:45:48.066Z,140.90
2023-03-17T11:46:48.086Z,139.23
2023-03-17T11:47:48.142Z,139.38
2023-03-17T11:48:48.213Z,140.68
2023-03-17T11:49:47.898Z,139.73
2023-03-17T11:50:48.320Z,138.50
2023-03-17T11:51:48.389Z,141.99
2023-03-17T11:52:47.400Z,139.83
2023-03-17T11:53:47.425Z,140.71
2023-03-17T11:54:48.534Z,142.38
2023-03-17T11:55:48.565Z,141.28
2023-03-17T11:56:47.649Z,136.29
2023-03-17T11:57:48.669Z,137.84
2023-03-17T11:58:48.736Z,140.68
2023-03-17T11:59:48.788Z,142.45
2023-03-17T12:00:48.784Z,145.41
2023-03-17T12:01:48.810Z,140.19
2023-03-17T12:02:48.806Z,142.51
2023-03-17T12:03:48.977Z,141.24
2023-03-17T12:04:48.828Z,140.48
2023-03-17T12:05:48.804Z,135.72
2023-03-17T12:06:48.871Z,138.76
2023-03-17T12:07:48.936Z,132.61
2023-03-17T12:08:48.974Z,137.30
2023-03-17T12:09:49.046Z,131.56
2023-03-17T12:10:49.094Z,129.77
2023-03-17T12:11:49.213Z,132.61
2023-03-17T12:12:49.202Z,133.41
2023-03-17T12:13:49.259Z,133.49
2023-03-17T12:14:49.328Z,136.49
2023-03-17T12:15:49.358Z,132.83
2023-03-17T12:16:48.374Z,135.49
2023-03-17T12:17:49.366Z,133.41
2023-03-17T12:18:49.359Z,134.26
2023-03-17T12:19:49.340Z,132.39
2023-03-17T12:20:49.345Z,132.97
2023-03-17T12:21:49.354Z,133.59
2023-03-17T12:22:49.342Z,130.75
2023-03-17T12:23:49.342Z,130.66
2023-03-17T12:24:49.338Z,128.64
2023-03-17T12:25:49.347Z,130.58
2023-03-17T12:26:49.371Z,130.07
2023-03-17T12:27:48.401Z,131.20
2023-03-17T12:28:49.377Z,129.86
2023-03-17T12:29:49.355Z,126.15
2023-03-17T12:30:48.472Z,125.35
2023-03-17T12:31:49.346Z,124.85
2023-03-17T12:32:49.477Z,122.14
2023-03-17T12:33:49.438Z,126.62
2023-03-17T12:34:49.484Z,123.67
2023-03-17T12:35:49.595Z,129.33
2023-03-17T12:36:49.576Z,128.32
2023-03-17T12:37:49.971Z,127.75
2023-03-17T12:38:49.761Z,129.64
2023-03-17T12:39:49.748Z,123.48
2023-03-17T12:40:49.752Z,128.77
2023-03-17T12:41:49.779Z,129.76
2023-03-17T12:42:48.785Z,129.84
2023-03-17T12:43:49.832Z,127.50
2023-03-17T12:44:49.866Z,130.27
2023-03-17T12:45:49.846Z,128.61
2023-03-17T12:46:49.009Z,132.08
2023-03-17T12:47:48.891Z,131.85
2023-03-17T12:48:49.923Z,128.63
2023-03-17T12:49:49.966Z,129.47
2023-03-17T12:50:50.028Z,129.75
2023-03-17T12:51:49.050Z,131.24
2023-03-17T12:52:50.095Z,132.64
2023-03-17T12:53:50.141Z,133.25
2023-03-17T12:54:50.165Z,134.10
2023-03-17T12:55:50.249Z,131.71
2023-03-17T12:56:50.246Z,130.98
2023-03-17T12:57:50.296Z,131.96
2023-03-17T12:58:50.324Z,129.87
2023-03-17T12:59:50.377Z,131.27
2023-03-17T13:00:49.391Z,134.62
2023-03-17T13:01:50.463Z,132.59
2023-03-17T13:02:50.525Z,131.44
2023-03-17T13:03:50.499Z,128.47
2023-03-17T13:04:50.509Z,117.04
2023-03-17T13:05:49.512Z,121.39
2023-03-17T13:06:50.542Z,122.64
2023-03-17T13:07:50.580Z,122.07
2023-03-17T13:08:50.575Z,122.95
2023-03-17T13:09:50.629Z,128.39
2023-03-17T13:10:49.654Z,122.88
2023-03-17T13:11:50.684Z,123.32
2023-03-17T13:12:50.805Z,124.07
2023-03-17T13:13:50.735Z,127.00
2023-03-17T13:14:50.782Z,126.11
2023-03-17T13:15:50.886Z,125.08
2023-03-17T13:16:50.863Z,126.53
2023-03-17T13:17:50.896Z,128.06
2023-03-17T13:18:50.950Z,126.08
2023-03-17T13:19:50.980Z,121.52
2023-03-17T13:20:51.012Z,126.53
2023-03-17T13:21:51.068Z,126.12
2023-03-17T13:22:51.096Z,122.82
2023-03-17T13:23:51.117Z,123.02
2023-03-17T13:24:51.207Z,122.12
2023-03-17T13:25:51.187Z,119.87
2023-03-17T13:26:50.209Z,111.86
2023-03-17T13:27:51.215Z,101.03
2023-03-17T13:28:51.225Z,92.59
2023-03-17T13:29:51.217Z,68.62
2023-03-17T13:30:51.212Z,43.38
2023-03-17T13:31:51.370Z,25.34
2023-03-17T13:32:51.393Z,39.46
2023-03-17T13:33:50.358Z,45.52
2023-03-17T13:34:51.421Z,53.53
2023-03-17T13:35:51.478Z,79.93
2023-03-17T13:36:51.504Z,86.48
2023-03-17T13:37:51.579Z,111.17
2023-03-17T13:39:05.127Z,108.06
2023-03-17T13:39:51.611Z,98.56
2023-03-17T13:40:51.609Z,103.99
2023-03-17T13:41:51.605Z,106.55
2023-03-17T13:42:50.599Z,105.93
2023-03-17T13:43:51.579Z,106.84
2023-03-17T13:44:51.596Z,112.86
2023-03-17T13:45:51.568Z,115.82
2023-03-17T13:46:50.651Z,122.16